createdAt,value
2022-10-25T00:01:46.770Z,14.20
2022-10-25T00:04:15.813Z,14.20
2022-10-25T00:06:43.261Z,14.20
2022-10-25T00:09:10.513Z,14.30
2022-10-25T00:11:39.683Z,14.30
2022-10-25T00:14:07.709Z,14.30
2022-10-25T00:16:38.065Z,14.20
2022-10-25T00:19:05.542Z,14.30
2022-10-25T00:21:32.829Z,14.20
2022-10-25T00:23:59.783Z,14.20
2022-10-25T00:26:26.556Z,14.20
2022-10-25T00:28:56.185Z,14.20
2022-10-25T00:31:24.623Z,14.20
2022-10-25T00:33:51.590Z,14.30
2022-10-25T00:36:25.768Z,14.30
2022-10-25T00:38:58.100Z,14.30
2022-10-25T00:41:31.337Z,14.30
2022-10-25T00:44:36.337Z,14.30
2022-10-25T00:47:21.564Z,14.30
2022-10-25T00:50:20.760Z,14.30
2022-10-25T00:52:51.577Z,14.30
2022-10-25T00:55:21.772Z,14.40
2022-10-25T00:58:13.095Z,14.40
2022-10-25T01:00:41.484Z,14.40
2022-10-25T01:03:08.540Z,14.40
2022-10-25T01:05:37.229Z,14.40
2022-10-25T01:08:05.873Z,14.40
2022-10-25T01:10:32.701Z,14.40
2022-10-25T01:13:03.187Z,14.40
2022-10-25T01:15:56.565Z,14.40
2022-10-25T01:18:45.283Z,14.50
2022-10-25T01:22:02.664Z,14.50
2022-10-25T01:24:38.200Z,14.40
2022-10-25T01:30:56.174Z,14.40
2022-10-25T01:34:03.015Z,14.50
2022-10-25T01:37:17.969Z,14.40
2022-10-25T01:40:36.884Z,14.30
2022-10-25T01:43:18.837Z,14.30
2022-10-25T01:46:08.736Z,14.30
2022-10-25T01:48:47.739Z,14.30
2022-10-25T01:51:18.376Z,14.30
2022-10-25T01:53:51.511Z,14.40
2022-10-25T01:56:29.284Z,14.30
2022-10-25T01:59:14.084Z,14.30
2022-10-25T02:02:20.272Z,14.30
2022-10-25T02:05:27.494Z,14.30
2022-10-25T02:08:04.405Z,14.20
2022-10-25T02:11:06.286Z,14.20
2022-10-25T02:14:07.281Z,14.20
2022-10-25T02:16:53.778Z,14.20
2022-10-25T02:19:51.237Z,14.10
2022-10-25T02:22:23.204Z,14.10
2022-10-25T02:24:52.904Z,14.20
2022-10-25T02:27:23.139Z,14.10
2022-10-25T02:29:52.781Z,14.00
2022-10-25T02:32:20.619Z,14.00
2022-10-25T02:34:51.216Z,14.00
2022-10-25T02:37:18.782Z,14.00
2022-10-25T02:39:46.439Z,14.00
2022-10-25T02:42:13.129Z,14.00
2022-10-25T02:44:39.809Z,14.10
2022-10-25T02:47:06.502Z,14.10
2022-10-25T02:49:33.374Z,14.10
2022-10-25T02:52:00.157Z,14.10
2022-10-25T02:54:26.838Z,14.20
2022-10-25T02:56:54.008Z,14.20
2022-10-25T02:59:21.327Z,14.20
2022-10-25T03:01:49.042Z,14.20
2022-10-25T03:04:15.953Z,14.20
2022-10-25T03:06:42.662Z,14.20
2022-10-25T03:09:09.367Z,14.20
2022-10-25T03:11:36.079Z,14.20
2022-10-25T03:14:02.804Z,14.20
2022-10-25T03:16:29.532Z,14.20
2022-10-25T03:19:03.520Z,14.20
2022-10-25T03:21:30.250Z,14.20
2022-10-25T03:23:56.920Z,14.10
2022-10-25T03:26:23.645Z,14.10
2022-10-25T03:28:50.321Z,14.10
2022-10-25T03:31:18.218Z,14.10
2022-10-25T03:33:45.093Z,14.20
2022-10-25T03:36:11.947Z,14.20
2022-10-25T03:38:38.694Z,14.20
2022-10-25T03:41:06.140Z,14.20
2022-10-25T03:43:32.959Z,14.20
2022-10-25T03:46:02.848Z,14.10
2022-10-25T03:48:29.542Z,14.10
2022-10-25T03:50:56.254Z,14.10
2022-10-25T03:53:22.958Z,14.10
2022-10-25T03:55:49.923Z,14.20
2022-10-25T03:58:17.747Z,14.10
2022-10-25T04:00:44.524Z,14.10
2022-10-25T04:03:11.436Z,14.10
2022-10-25T04:05:38.319Z,14.10
2022-10-25T04:08:05.232Z,14.10
2022-10-25T04:10:31.947Z,14.10
2022-10-25T04:12:58.930Z,14.10
2022-10-25T04:15:25.686Z,14.10
2022-10-25T04:17:54.572Z,14.10
2022-10-25T04:20:21.921Z,14.10
2022-10-25T04:22:58.369Z,14.10
2022-10-25T04:25:27.644Z,14.10
2022-10-25T04:27:55.225Z,14.10
2022-10-25T04:30:22.522Z,14.00
2022-10-25T04:32:49.871Z,14.00
2022-10-25T04:35:17.203Z,14.00
2022-10-25T04:37:43.920Z,14.00
2022-10-25T04:40:11.903Z,14.00
2022-10-25T04:42:38.656Z,14.00
2022-10-25T04:45:06.077Z,13.90
2022-10-25T04:47:33.029Z,14.00
2022-10-25T04:49:59.964Z,14.00
2022-10-25T04:52:30.014Z,14.00
2022-10-25T04:54:57.779Z,13.90
2022-10-25T04:57:25.816Z,13.90
2022-10-25T04:59:52.695Z,13.90
2022-10-25T05:02:19.635Z,13.90
2022-10-25T05:04:46.396Z,13.90
2022-10-25T05:07:13.197Z,13.90
2022-10-25T05:09:41.719Z,13.80
2022-10-25T05:12:11.810Z,13.90
2022-10-25T05:14:38.483Z,13.80
2022-10-25T05:17:05.343Z,13.90
2022-10-25T05:19:32.031Z,13.90
2022-10-25T05:21:58.768Z,13.90
2022-10-25T05:24:25.612Z,13.90
2022-10-25T05:26:52.320Z,13.90
2022-10-25T05:29:19.069Z,13.90
2022-10-25T05:31:45.847Z,13.90
2022-10-25T05:34:12.558Z,14.00
2022-10-25T05:36:39.297Z,14.00
2022-10-25T05:39:08.035Z,14.00
2022-10-25T05:41:37.073Z,13.90
2022-10-25T05:44:06.197Z,13.90
2022-10-25T05:46:32.970Z,14.00
2022-10-25T05:49:04.100Z,14.00
2022-10-25T05:51:35.896Z,14.00
2022-10-25T05:54:15.815Z,14.10
2022-10-25T05:56:43.856Z,14.10
2022-10-25T05:59:16.556Z,14.10
2022-10-25T06:01:46.474Z,14.00
2022-10-25T06:04:14.353Z,14.00
2022-10-25T06:06:43.644Z,14.00
2022-10-25T06:09:11.842Z,14.10
2022-10-25T06:11:42.069Z,14.00
2022-10-25T06:14:10.805Z,14.10
2022-10-25T06:16:38.708Z,14.10
2022-10-25T06:19:06.358Z,14.10
2022-10-25T06:21:33.059Z,14.10
2022-10-25T06:24:00.084Z,14.10
2022-10-25T06:26:30.005Z,14.10
2022-10-25T06:29:01.521Z,14.10
2022-10-25T06:31:30.178Z,14.00
2022-10-25T06:33:58.856Z,14.00
2022-10-25T06:36:27.652Z,14.00
2022-10-25T06:38:54.587Z,13.90
2022-10-25T06:41:25.353Z,13.90
2022-10-25T06:43:52.200Z,13.90
2022-10-25T06:46:33.034Z,13.90
2022-10-25T06:49:05.312Z,13.90
2022-10-25T06:51:43.159Z,13.90
2022-10-25T06:54:09.962Z,13.80
2022-10-25T06:56:53.031Z,13.90
2022-10-25T06:59:20.387Z,13.80
2022-10-25T07:01:47.961Z,13.80
2022-10-25T07:04:18.902Z,13.80
2022-10-25T07:06:52.993Z,13.80
2022-10-25T07:09:23.685Z,13.80
2022-10-25T07:11:51.604Z,13.80
2022-10-25T07:14:18.388Z,13.80
2022-10-25T07:16:45.179Z,13.80
2022-10-25T07:19:12.904Z,13.80
2022-10-25T07:21:39.656Z,13.90
2022-10-25T07:24:06.775Z,13.90
2022-10-25T07:26:35.347Z,13.90
2022-10-25T07:29:04.088Z,13.90
2022-10-25T07:31:36.413Z,14.00
2022-10-25T07:34:06.159Z,14.00
2022-10-25T07:36:33.694Z,14.00
2022-10-25T07:39:00.766Z,14.10
2022-10-25T07:41:28.685Z,14.10
2022-10-25T07:43:55.467Z,14.10
2022-10-25T07:46:23.039Z,14.20
2022-10-25T07:48:49.986Z,14.20
2022-10-25T07:51:18.035Z,14.20
2022-10-25T07:53:45.115Z,14.30
2022-10-25T07:56:23.127Z,14.20
2022-10-25T07:58:54.198Z,14.30
2022-10-25T08:01:27.588Z,14.20
2022-10-25T08:03:55.566Z,14.30
2022-10-25T08:06:25.987Z,14.20
2022-10-25T08:08:54.750Z,14.20
2022-10-25T08:11:21.517Z,14.30
2022-10-25T08:13:50.492Z,14.40
2022-10-25T08:16:18.353Z,14.40
2022-10-25T08:18:45.320Z,14.40
2022-10-25T08:21:12.073Z,14.40
2022-10-25T08:23:38.920Z,14.40
2022-10-25T08:26:05.833Z,14.50
2022-10-25T08:28:34.744Z,14.50
2022-10-25T08:31:01.999Z,14.40
2022-10-25T08:33:29.618Z,14.50
2022-10-25T08:36:00.088Z,14.50
2022-10-25T08:38:26.782Z,14.50
2022-10-25T08:41:59.553Z,14.50
2022-10-25T08:44:36.948Z,14.60
2022-10-25T08:47:20.437Z,14.60
2022-10-25T08:50:02.594Z,14.60
2022-10-25T08:52:59.061Z,14.60
2022-10-25T08:55:38.884Z,14.70
2022-10-25T08:58:29.573Z,14.70
2022-10-25T09:01:02.516Z,14.70
2022-10-25T09:03:30.544Z,14.70
2022-10-25T09:07:16.697Z,14.80
2022-10-25T09:10:15.405Z,15.00
2022-10-25T09:13:38.969Z,15.10
2022-10-25T09:16:17.610Z,15.20
2022-10-25T09:18:57.069Z,15.30
2022-10-25T09:22:03.775Z,15.40
2022-10-25T09:24:56.867Z,15.40
2022-10-25T09:27:36.404Z,15.60
2022-10-25T09:30:12.162Z,15.70
2022-10-25T09:32:51.434Z,15.80
2022-10-25T09:35:44.030Z,16.00
2022-10-25T09:38:55.284Z,15.90
2022-10-25T09:41:46.769Z,16.20
2022-10-25T09:44:32.328Z,16.30
2022-10-25T09:47:32.611Z,16.40
2022-10-25T09:50:13.694Z,16.40
2022-10-25T09:53:07.367Z,16.60
2022-10-25T09:55:58.694Z,16.70
2022-10-25T09:58:30.452Z,16.60
2022-10-25T10:01:27.739Z,16.60
2022-10-25T10:04:23.976Z,16.60
2022-10-25T10:06:53.496Z,16.50
2022-10-25T10:09:21.622Z,16.40
2022-10-25T10:11:53.636Z,16.30
2022-10-25T10:14:40.257Z,16.20
2022-10-25T10:17:15.211Z,16.20
2022-10-25T10:19:43.929Z,16.30
2022-10-25T10:22:28.123Z,16.20
2022-10-25T10:25:01.352Z,16.20
2022-10-25T10:27:29.179Z,16.30
2022-10-25T10:30:07.675Z,16.40
2022-10-25T10:32:37.952Z,16.50
2022-10-25T10:35:24.277Z,16.40
2022-10-25T10:37:51.075Z,16.50
2022-10-25T10:40:18.905Z,16.50
2022-10-25T10:42:45.893Z,16.50
2022-10-25T10:45:19.639Z,16.50
2022-10-25T10:47:57.948Z,16.50
2022-10-25T10:50:32.524Z,16.40
2022-10-25T10:53:21.591Z,16.50
2022-10-25T10:56:04.185Z,16.60
2022-10-25T10:58:41.940Z,16.60
2022-10-25T11:01:28.614Z,16.60
2022-10-25T11:04:01.301Z,16.80
2022-10-25T11:06:34.790Z,16.80
2022-10-25T11:09:12.274Z,16.70
2022-10-25T11:12:10.232Z,16.80
2022-10-25T11:14:37.129Z,16.70
2022-10-25T11:17:29.544Z,16.60
2022-10-25T11:20:28.609Z,16.60
2022-10-25T11:23:29.929Z,16.50
2022-10-25T11:26:04.818Z,16.60
2022-10-25T11:28:48.458Z,16.50
2022-10-25T11:31:43.063Z,16.30
2022-10-25T11:34:52.048Z,16.30
2022-10-25T11:38:07.117Z,16.30
2022-10-25T11:40:44.621Z,16.20
2022-10-25T11:43:15.381Z,16.30
2022-10-25T11:45:48.381Z,16.30
2022-10-25T11:48:39.321Z,16.30
2022-10-25T11:51:31.468Z,16.40
2022-10-25T11:54:39.577Z,16.40
2022-10-25T11:57:45.085Z,16.30
2022-10-25T12:00:47.777Z,16.30
2022-10-25T12:03:47.705Z,16.30
2022-10-25T12:07:06.744Z,16.30
2022-10-25T12:10:16.437Z,16.30
2022-10-25T12:12:55.307Z,16.30
2022-10-25T12:15:47.845Z,16.30
2022-10-25T12:18:33.599Z,16.30
2022-10-25T12:21:05.396Z,16.30
2022-10-25T12:23:43.608Z,16.30
2022-10-25T12:26:35.625Z,16.30
2022-10-25T12:29:15.575Z,16.50
2022-10-25T12:32:22.007Z,16.60
2022-10-25T12:34:53.341Z,16.70
2022-10-25T12:37:32.885Z,16.70
2022-10-25T12:39:59.783Z,16.70
2022-10-25T12:42:57.695Z,16.70
2022-10-25T12:45:56.048Z,16.60
2022-10-25T12:48:56.814Z,16.70
2022-10-25T12:51:38.708Z,16.80
2022-10-25T12:55:01.231Z,17.00
2022-10-25T12:58:02.851Z,17.00
2022-10-25T13:00:44.235Z,17.10
2022-10-25T13:03:49.472Z,17.20
2022-10-25T13:06:35.370Z,17.40
2022-10-25T13:09:09.514Z,17.60
2022-10-25T13:11:59.901Z,17.50
2022-10-25T13:14:35.808Z,17.60
2022-10-25T13:17:18.966Z,17.70
2022-10-25T13:20:19.923Z,17.70
2022-10-25T13:22:46.615Z,17.70
2022-10-25T13:25:13.228Z,17.40
2022-10-25T13:28:10.971Z,17.30
2022-10-25T13:30:37.748Z,17.20
2022-10-25T13:33:24.391Z,17.30
2022-10-25T13:35:51.272Z,17.40
2022-10-25T13:38:28.531Z,17.50
2022-10-25T13:41:18.734Z,17.40
2022-10-25T13:44:05.127Z,17.40
2022-10-25T13:46:41.004Z,17.40
2022-10-25T13:49:29.580Z,17.60
2022-10-25T13:51:59.930Z,17.60
2022-10-25T13:54:39.221Z,17.60
2022-10-25T13:57:51.148Z,17.60
2022-10-25T14:00:23.787Z,17.70
2022-10-25T14:03:09.519Z,17.60
2022-10-25T14:05:57.196Z,17.50
2022-10-25T14:08:58.714Z,17.40
2022-10-25T14:11:51.504Z,17.40
2022-10-25T14:14:50.086Z,17.50
2022-10-25T14:17:37.448Z,17.60
2022-10-25T14:20:30.630Z,17.60
2022-10-25T14:23:37.985Z,17.40
2022-10-25T14:26:14.257Z,17.60
2022-10-25T14:28:44.032Z,17.80
2022-10-25T14:31:19.734Z,17.70
2022-10-25T14:33:56.386Z,17.60
2022-10-25T14:36:32.828Z,17.50
2022-10-25T14:39:24.767Z,17.30
2022-10-25T14:41:56.108Z,17.30
2022-10-25T14:44:50.555Z,17.30
2022-10-25T14:47:33.352Z,17.20
2022-10-25T14:50:02.611Z,17.40
2022-10-25T14:52:31.442Z,17.40
2022-10-25T14:55:03.799Z,17.40
2022-10-25T14:57:34.549Z,17.60
2022-10-25T15:00:06.218Z,17.70
2022-10-25T15:02:40.509Z,17.60
2022-10-25T15:05:21.208Z,17.50
2022-10-25T15:07:55.047Z,17.50
2022-10-25T15:10:41.319Z,17.20
2022-10-25T15:13:15.368Z,17.20
2022-10-25T15:15:47.693Z,17.20
2022-10-25T15:18:37.924Z,17.10
2022-10-25T15:21:16.260Z,17.20
2022-10-25T15:24:16.722Z,17.00
2022-10-25T15:27:04.033Z,17.10
2022-10-25T15:29:42.697Z,17.00
2022-10-25T15:32:26.959Z,17.00
2022-10-25T15:35:01.713Z,17.00
2022-10-25T15:37:39.800Z,17.00
2022-10-25T15:40:15.882Z,17.00
2022-10-25T15:42:42.656Z,16.90
2022-10-25T15:45:12.603Z,16.90
2022-10-25T15:47:47.214Z,16.90
2022-10-25T15:50:20.023Z,16.80
2022-10-25T15:52:50.470Z,16.90
2022-10-25T15:55:27.459Z,16.80
2022-10-25T15:57:55.166Z,16.90
2022-10-25T16:00:27.980Z,16.90
2022-10-25T16:02:55.967Z,17.00
2022-10-25T16:05:33.077Z,17.00
2022-10-25T16:08:00.834Z,17.00
2022-10-25T16:10:29.383Z,17.00
2022-10-25T16:13:09.782Z,16.90
2022-10-25T16:15:36.656Z,16.90
2022-10-25T16:18:04.376Z,16.90
2022-10-25T16:20:31.845Z,16.80
2022-10-25T16:22:58.724Z,16.80
2022-10-25T16:25:30.449Z,16.80
2022-10-25T16:28:00.659Z,16.80
2022-10-25T16:30:37.471Z,16.70
2022-10-25T16:33:06.523Z,16.70
2022-10-25T16:35:33.202Z,16.70
2022-10-25T16:37:59.982Z,16.70
2022-10-25T16:40:27.686Z,16.70
2022-10-25T16:42:54.597Z,16.70
2022-10-25T16:45:38.655Z,16.70
2022-10-25T16:48:07.109Z,16.70
2022-10-25T16:50:34.569Z,16.60
2022-10-25T16:53:07.280Z,16.60
2022-10-25T16:55:34.194Z,16.60
2022-10-25T16:58:02.088Z,16.60
2022-10-25T17:00:35.777Z,16.60
2022-10-25T17:03:09.033Z,16.60
2022-10-25T17:05:39.700Z,16.60
2022-10-25T17:08:06.512Z,16.60
2022-10-25T17:10:33.213Z,16.50
2022-10-25T17:13:03.331Z,16.40
2022-10-25T17:15:30.793Z,16.40
2022-10-25T17:17:58.459Z,16.50
2022-10-25T17:20:25.470Z,16.40
2022-10-25T17:22:52.979Z,16.40
2022-10-25T17:25:19.817Z,16.30
2022-10-25T17:27:51.674Z,16.30
2022-10-25T17:30:19.448Z,16.20
2022-10-25T17:32:46.860Z,16.20
2022-10-25T17:35:13.756Z,16.10
2022-10-25T17:37:43.356Z,16.10
2022-10-25T17:40:13.511Z,15.90
2022-10-25T17:42:40.467Z,15.90
2022-10-25T17:45:08.122Z,15.80
2022-10-25T17:47:37.367Z,15.90
2022-10-25T17:50:05.549Z,15.80
2022-10-25T17:52:32.275Z,15.70
2022-10-25T17:54:59.036Z,15.70
2022-10-25T17:57:25.965Z,15.70
2022-10-25T17:59:52.808Z,15.70
2022-10-25T18:02:19.822Z,15.70
2022-10-25T18:05:00.977Z,15.60
2022-10-25T18:07:35.002Z,15.50
2022-10-25T18:10:04.605Z,15.50
2022-10-25T18:12:31.394Z,15.50
2022-10-25T18:14:58.094Z,15.40
2022-10-25T18:17:24.872Z,15.40
2022-10-25T18:19:51.689Z,15.40
2022-10-25T18:22:20.959Z,15.30
2022-10-25T18:24:48.031Z,15.20
2022-10-25T18:27:15.835Z,15.20
2022-10-25T18:29:43.336Z,15.20
2022-10-25T18:32:10.281Z,15.20
2022-10-25T18:34:38.183Z,15.10
2022-10-25T18:37:05.060Z,15.10
2022-10-25T18:39:31.855Z,15.10
2022-10-25T18:41:58.675Z,14.90
2022-10-25T18:44:25.475Z,14.90
2022-10-25T18:46:53.881Z,14.90
2022-10-25T18:49:20.650Z,15.00
2022-10-25T18:51:47.333Z,14.90
2022-10-25T18:54:14.063Z,14.90
2022-10-25T18:56:41.237Z,14.80
2022-10-25T18:59:10.056Z,14.80
2022-10-25T19:01:37.731Z,14.80
2022-10-25T19:04:07.277Z,14.80
2022-10-25T19:06:34.381Z,14.80
2022-10-25T19:09:02.901Z,14.70
2022-10-25T19:11:30.248Z,14.70
2022-10-25T19:13:59.666Z,14.70
2022-10-25T19:16:26.431Z,14.60
2022-10-25T19:18:53.187Z,14.50
2022-10-25T19:21:20.236Z,14.50
2022-10-25T19:23:47.731Z,14.50
2022-10-25T19:26:20.974Z,14.50
2022-10-25T19:28:47.925Z,14.50
2022-10-25T19:31:17.597Z,14.50
2022-10-25T19:33:50.056Z,14.50
2022-10-25T19:36:19.223Z,14.50
2022-10-25T19:38:48.216Z,14.40
2022-10-25T19:41:20.177Z,14.40
2022-10-25T19:43:47.561Z,14.40
2022-10-25T19:46:15.689Z,14.40
2022-10-25T19:48:42.605Z,14.30
2022-10-25T19:51:18.897Z,14.30
2022-10-25T19:53:46.256Z,14.20
2022-10-25T19:56:20.105Z,14.20
2022-10-25T19:58:47.965Z,14.20
2022-10-25T20:01:24.823Z,14.20
2022-10-25T20:04:00.963Z,14.10
2022-10-25T20:06:34.142Z,14.20
2022-10-25T20:09:02.095Z,14.20
2022-10-25T20:11:29.400Z,14.10
2022-10-25T20:13:59.395Z,14.00
2022-10-25T20:16:27.212Z,14.10
2022-10-25T20:18:54.488Z,14.10
2022-10-25T20:21:32.631Z,14.00
2022-10-25T20:24:04.863Z,13.90
2022-10-25T20:26:35.733Z,13.90
2022-10-25T20:29:17.096Z,13.90
2022-10-25T20:31:46.963Z,13.90
2022-10-25T20:34:13.693Z,13.90
2022-10-25T20:36:41.729Z,13.90
2022-10-25T20:39:08.438Z,13.80
2022-10-25T20:41:36.015Z,13.80
2022-10-25T20:44:04.810Z,13.80
2022-10-25T20:46:35.707Z,13.80
2022-10-25T20:49:03.418Z,13.70
2022-10-25T20:51:30.377Z,13.70
2022-10-25T20:53:57.129Z,13.70
2022-10-25T20:56:24.822Z,13.70
2022-10-25T20:58:52.159Z,13.60
2022-10-25T21:01:19.089Z,13.60
2022-10-25T21:03:45.933Z,13.60
2022-10-25T21:06:14.639Z,13.60
2022-10-25T21:08:41.644Z,13.70
2022-10-25T21:11:13.123Z,13.60
2022-10-25T21:13:40.333Z,13.60
2022-10-25T21:16:14.344Z,13.50
2022-10-25T21:18:42.463Z,13.60
2022-10-25T21:21:19.824Z,13.50
2022-10-25T21:23:47.551Z,13.50
2022-10-25T21:26:14.759Z,13.40
2022-10-25T21:28:42.599Z,13.40
2022-10-25T21:31:15.374Z,13.40
2022-10-25T21:33:49.850Z,13.40
2022-10-25T21:36:19.479Z,13.40
2022-10-25T21:38:46.675Z,13.40
2022-10-25T21:41:26.730Z,13.40
2022-10-25T21:43:55.182Z,13.30
2022-10-25T21:46:23.216Z,13.30
2022-10-25T21:48:50.621Z,13.30
2022-10-25T21:51:24.361Z,13.30
2022-10-25T21:56:31.228Z,13.20
2022-10-25T21:59:03.156Z,13.30
2022-10-25T22:01:30.770Z,13.20
2022-10-25T22:03:57.895Z,13.20
2022-10-25T22:06:27.101Z,13.20
2022-10-25T22:08:55.737Z,13.30
2022-10-25T22:11:26.905Z,13.20
2022-10-25T22:13:56.861Z,13.20
2022-10-25T22:16:24.393Z,13.10
2022-10-25T22:19:01.527Z,13.10
2022-10-25T22:21:52.217Z,13.10
2022-10-25T22:24:19.069Z,13.00
2022-10-25T22:26:49.421Z,13.00
2022-10-25T22:29:16.151Z,13.00
2022-10-25T22:31:42.952Z,13.00
2022-10-25T22:34:10.833Z,13.00
2022-10-25T22:36:40.778Z,13.00
2022-10-25T22:39:09.984Z,13.00
2022-10-25T22:41:37.000Z,12.90
2022-10-25T22:44:04.287Z,13.00
2022-10-25T22:46:35.919Z,12.90
2022-10-25T22:49:09.199Z,12.90
2022-10-25T22:51:37.951Z,12.90
2022-10-25T22:54:04.898Z,12.90
2022-10-25T22:56:32.362Z,12.90
2022-10-25T22:59:07.622Z,12.80
2022-10-25T23:01:38.046Z,12.80
2022-10-25T23:04:07.953Z,12.80
2022-10-25T23:06:39.576Z,12.80
2022-10-25T23:09:09.388Z,12.80
2022-10-25T23:11:39.815Z,12.80
2022-10-25T23:14:13.220Z,12.70
2022-10-25T23:16:43.269Z,12.70
2022-10-25T23:19:09.925Z,12.70
2022-10-25T23:21:36.697Z,12.70
2022-10-25T23:24:03.590Z,12.60
2022-10-25T23:26:33.494Z,12.70
2022-10-25T23:29:02.312Z,12.70
2022-10-25T23:31:30.585Z,12.70
2022-10-25T23:34:00.304Z,12.60
2022-10-25T23:36:37.061Z,12.60
2022-10-25T23:39:05.784Z,12.60
2022-10-25T23:41:32.684Z,12.60
2022-10-25T23:43:59.455Z,12.60
2022-10-25T23:46:28.681Z,12.60
2022-10-25T23:48:55.440Z,12.50
2022-10-25T23:51:22.122Z,12.50
2022-10-25T23:53:48.816Z,12.50
2022-10-25T23:56:15.795Z,12.50
2022-10-25T23:58:42.703Z,12.60
